Terminal Aerodrome Forecast
Issued by NWS

Home | Current Version | Previous Version | Text Only | Print | Product List | Glossary On
Versions: 1 2 3 4 5 6 7 8 9 10 11 12 13 14 15 16 17 18 19 20 21
000
FTUS46 KEKA 242353
TAFCEC
TAF
KCEC 242353Z 2500/2524 33010KT P6SM SCT008
     FM250400 18006KT 6SM BR BKN008
     FM250900 21004KT 4SM BR OVC005
     FM251200 VRB03KT 4SM BR OVC003
     FM251700 30010KT 6SM HZ SCT010=

USA.gov is the U.S. government's official web portal to all federal, state and local government web resources and services.